Time;durP1;ratioP1;P1;durP2;ratioP2;P2;SDS_P1;SDS_P2;PMS_P1;PMS_P2;Temp;Humidity;BMP_temperature;BMP_pressure;BME280_temperature;BME280_humidity;BME280_pressure;Samples;Min_cycle;Max_cycle;Signal;HPM_P1;HPM_P2
2021/09/21 00:02:10;;;;;;;4.60;3.17;;;18.50;55.10;;;;;;4891710;29;20179;-81
2021/09/21 00:04:36;;;;;;;4.60;3.38;;;18.60;55.10;;;;;;4892497;29;20164;-81
2021/09/21 00:07:02;;;;;;;3.75;2.97;;;18.60;55.10;;;;;;4892624;29;20257;-80
2021/09/21 00:09:28;;;;;;;4.28;3.20;;;18.50;55.20;;;;;;4894057;29;20168;-80
2021/09/21 00:11:53;;;;;;;5.60;3.40;;;18.60;55.10;;;;;;4892771;29;20172;-80
2021/09/21 00:14:20;;;;;;;4.70;3.03;;;18.50;55.10;;;;;;4893300;29;20191;-80
2021/09/21 00:16:47;;;;;;;5.03;3.00;;;18.50;55.10;;;;;;4891936;29;20167;-81
2021/09/21 00:19:15;;;;;;;5.43;3.33;;;18.50;55.00;;;;;;4876501;29;20160;-80
2021/09/21 00:21:42;;;;;;;5.20;3.55;;;18.60;55.00;;;;;;4892769;29;20160;-80
2021/09/21 00:24:11;;;;;;;4.07;2.95;;;18.50;55.10;;;;;;4891113;29;20200;-80
2021/09/21 00:26:37;;;;;;;4.70;3.30;;;18.50;55.20;;;;;;4892798;29;20169;-80
2021/09/21 00:29:02;;;;;;;5.72;3.25;;;18.50;55.10;;;;;;4892226;29;20168;-80
2021/09/21 00:31:37;;;;;;;5.60;3.08;;;18.50;55.10;;;;;;4892449;29;20165;-80
2021/09/21 00:34:07;;;;;;;5.72;3.40;;;18.50;55.20;;;;;;4892751;29;20218;-80
2021/09/21 00:36:35;;;;;;;5.50;3.45;;;18.50;55.20;;;;;;4892120;29;20163;-80
2021/09/21 00:39:07;;;;;;;4.95;3.20;;;18.50;55.10;;;;;;4875863;29;20230;-81
2021/09/21 00:41:36;;;;;;;5.32;3.33;;;18.50;55.10;;;;;;4891263;29;20184;-81
2021/09/21 00:44:05;;;;;;;5.43;3.20;;;18.50;54.90;;;;;;4890800;29;20254;-81
2021/09/21 00:46:31;;;;;;;5.30;3.58;;;18.50;55.00;;;;;;4891513;29;20165;-80
2021/09/21 00:48:57;;;;;;;4.25;3.03;;;18.50;55.10;;;;;;4890870;29;20642;-81
2021/09/21 00:51:24;;;;;;;4.93;3.17;;;18.50;55.10;;;;;;4892091;29;20168;-81
2021/09/21 00:53:51;;;;;;;5.00;3.40;;;18.50;55.10;;;;;;4875475;29;20214;-80
2021/09/21 00:56:16;;;;;;;4.75;3.22;;;18.50;54.90;;;;;;4875554;29;20168;-81
2021/09/21 00:58:42;;;;;;;4.93;3.00;;;18.50;55.10;;;;;;4860244;29;20187;-80
2021/09/21 01:01:08;;;;;;;4.82;3.10;;;18.50;55.10;;;;;;4875249;29;20262;-80
2021/09/21 01:03:33;;;;;;;4.53;3.30;;;18.50;54.90;;;;;;4875752;29;20172;-80
2021/09/21 01:05:59;;;;;;;4.70;3.10;;;18.40;55.00;;;;;;4890541;29;20168;-81
2021/09/21 01:08:28;;;;;;;4.15;3.05;;;18.50;55.10;;;;;;4875641;29;20197;-81
2021/09/21 01:10:56;;;;;;;6.57;3.58;;;18.50;55.10;;;;;;4891572;29;20505;-81
2021/09/21 01:13:24;;;;;;;4.88;3.30;;;18.50;55.20;;;;;;4892181;29;20196;-80
2021/09/21 01:15:51;;;;;;;5.38;3.30;;;18.50;55.00;;;;;;4890563;29;20168;-81
2021/09/21 01:18:18;;;;;;;4.47;3.08;;;18.50;55.20;;;;;;4892137;29;20165;-80
2021/09/21 01:20:44;;;;;;;4.00;3.20;;;18.50;55.10;;;;;;4874738;29;20175;-81
2021/09/21 01:23:10;;;;;;;3.60;2.80;;;18.50;55.00;;;;;;4860319;29;20637;-80
2021/09/21 01:25:38;;;;;;;4.80;3.40;;;18.50;55.10;;;;;;4874734;29;20191;-80
2021/09/21 01:28:04;;;;;;;5.85;3.33;;;18.50;55.00;;;;;;4875356;29;20172;-80
2021/09/21 01:30:29;;;;;;;5.47;3.30;;;18.50;55.00;;;;;;4891930;29;20165;-81
2021/09/21 01:32:56;;;;;;;4.00;3.15;;;18.50;55.10;;;;;;4875275;29;20211;-80
2021/09/21 01:35:22;;;;;;;4.18;3.20;;;18.50;55.10;;;;;;4875165;29;20157;-81
2021/09/21 01:37:51;;;;;;;3.80;2.80;;;18.50;55.10;;;;;;4875119;29;20226;-80
2021/09/21 01:40:18;;;;;;;4.68;3.38;;;18.40;55.00;;;;;;4875437;29;20183;-80
2021/09/21 01:42:47;;;;;;;5.47;3.63;;;18.40;55.10;;;;;;4892146;29;20191;-80
2021/09/21 01:45:13;;;;;;;4.47;2.80;;;18.50;55.10;;;;;;4893986;29;20179;-80
2021/09/21 01:47:39;;;;;;;3.60;2.95;;;18.50;55.20;;;;;;4879030;29;20308;-81
2021/09/21 01:52:50;;;;;;;5.43;3.70;;;18.40;55.20;;;;;;4894292;29;20195;-81
2021/09/21 02:00:32;;;;;;;5.15;3.15;;;18.50;55.10;;;;;;4894373;29;20193;-81
2021/09/21 02:02:59;;;;;;;4.78;3.08;;;18.50;55.20;;;;;;4878489;29;20172;-80
2021/09/21 02:05:26;;;;;;;4.55;3.22;;;18.40;55.10;;;;;;4862832;29;20180;-81
2021/09/21 02:07:58;;;;;;;4.78;3.20;;;18.40;55.10;;;;;;4878333;29;20178;-81
2021/09/21 02:10:25;;;;;;;4.15;3.20;;;18.50;55.10;;;;;;4878189;29;20175;-82
2021/09/21 02:12:51;;;;;;;4.55;3.15;;;18.40;55.00;;;;;;4878385;29;20200;-80
2021/09/21 02:15:16;;;;;;;4.63;3.33;;;18.40;55.00;;;;;;4877602;29;20236;-80
2021/09/21 02:17:42;;;;;;;5.32;3.78;;;18.50;55.10;;;;;;4894520;29;20510;-81
2021/09/21 02:20:09;;;;;;;6.00;3.30;;;18.50;55.30;;;;;;4893210;29;20272;-80
2021/09/21 02:22:39;;;;;;;4.63;2.92;;;18.40;55.20;;;;;;4877927;29;20691;-80
2021/09/21 02:25:06;;;;;;;5.53;3.10;;;18.40;55.20;;;;;;4894260;29;20518;-80
2021/09/21 02:27:32;;;;;;;4.35;3.00;;;18.40;55.20;;;;;;4893187;29;20168;-81
2021/09/21 02:29:58;;;;;;;4.80;3.38;;;18.40;55.00;;;;;;4878026;29;20192;-81
2021/09/21 02:32:24;;;;;;;5.28;3.20;;;18.40;55.30;;;;;;4878030;29;20202;-80
2021/09/21 02:34:55;;;;;;;4.60;3.10;;;18.40;55.20;;;;;;4862155;29;20194;-81
2021/09/21 02:37:21;;;;;;;4.47;3.45;;;18.40;55.30;;;;;;4893083;29;20222;-80
2021/09/21 02:39:46;;;;;;;4.82;3.25;;;18.40;55.20;;;;;;4894340;29;20191;-80
2021/09/21 02:42:12;;;;;;;4.63;3.50;;;18.40;55.30;;;;;;4877968;29;20204;-80
2021/09/21 02:44:39;;;;;;;5.10;2.97;;;18.40;55.20;;;;;;4877272;29;20195;-80
2021/09/21 02:47:04;;;;;;;3.95;3.10;;;18.40;55.30;;;;;;4877617;29;20224;-80
2021/09/21 02:49:32;;;;;;;4.60;2.90;;;18.40;56.00;;;;;;4877847;29;20168;-81
2021/09/21 02:51:57;;;;;;;4.00;2.95;;;18.40;55.20;;;;;;4862007;29;20176;-80
2021/09/21 02:54:24;;;;;;;4.72;3.40;;;18.40;55.30;;;;;;4876766;29;20203;-81
2021/09/21 02:56:53;;;;;;;3.80;3.17;;;18.40;55.30;;;;;;4876525;29;20176;-81
2021/09/21 02:59:19;;;;;;;5.38;3.20;;;18.40;55.30;;;;;;4877406;29;20182;-80
2021/09/21 03:01:44;;;;;;;4.45;3.30;;;18.40;55.20;;;;;;4892807;29;20228;-80
2021/09/21 03:04:18;;;;;;;6.30;3.28;;;18.40;55.30;;;;;;4893420;29;20160;-80
2021/09/21 03:06:50;;;;;;;5.40;3.38;;;18.40;55.30;;;;;;4863222;29;20541;-80
2021/09/21 03:09:46;;;;;;;4.00;3.05;;;18.40;55.10;;;;;;4862087;29;20172;-81
2021/09/21 03:17:28;;;;;;;5.05;3.08;;;18.40;55.00;;;;;;4893491;29;20164;-80
2021/09/21 03:19:55;;;;;;;3.40;2.72;;;18.40;55.00;;;;;;4893573;29;20171;-80
2021/09/21 03:22:23;;;;;;;4.22;2.83;;;18.30;54.10;;;;;;4877128;29;20203;-81
2021/09/21 03:24:51;;;;;;;3.95;2.90;;;18.30;54.10;;;;;;4877183;29;20221;-80
2021/09/21 03:27:17;;;;;;;5.05;3.05;;;18.30;54.70;;;;;;4861576;29;20565;-81
2021/09/21 03:29:44;;;;;;;3.78;2.88;;;18.40;54.20;;;;;;4876754;29;20195;-81
2021/09/21 03:32:10;;;;;;;5.47;3.13;;;18.30;54.10;;;;;;4877657;29;20189;-80
2021/09/21 03:34:38;;;;;;;4.00;3.20;;;18.40;54.20;;;;;;4876599;29;20195;-81
2021/09/21 03:37:07;;;;;;;5.13;2.83;;;18.40;54.10;;;;;;4876386;29;20164;-81
2021/09/21 03:39:34;;;;;;;3.35;2.80;;;18.40;54.20;;;;;;4861413;29;20180;-80
2021/09/21 03:42:00;;;;;;;3.78;3.00;;;18.30;54.50;;;;;;4877019;29;20169;-81
2021/09/21 03:44:27;;;;;;;5.07;2.90;;;18.40;54.20;;;;;;4892449;29;20164;-81
2021/09/21 03:46:53;;;;;;;4.25;3.05;;;18.40;54.00;;;;;;4876454;29;20168;-81
2021/09/21 03:49:19;;;;;;;3.97;2.80;;;18.30;53.90;;;;;;4876277;29;20209;-81
2021/09/21 03:51:45;;;;;;;4.47;3.00;;;18.30;54.20;;;;;;4892543;29;20622;-80
2021/09/21 03:54:11;;;;;;;3.83;2.90;;;18.30;53.90;;;;;;4861006;29;20200;-80
2021/09/21 03:56:38;;;;;;;3.83;3.05;;;18.30;54.10;;;;;;4876767;29;20171;-80
2021/09/21 03:59:05;;;;;;;4.95;2.90;;;18.40;54.50;;;;;;4876279;29;20164;-81
2021/09/21 04:01:31;;;;;;;3.97;3.10;;;18.30;54.40;;;;;;4891994;29;20521;-81
2021/09/21 04:03:58;;;;;;;4.68;3.13;;;18.40;53.80;;;;;;4876124;29;20188;-80
2021/09/21 04:06:23;;;;;;;4.22;2.72;;;18.30;54.20;;;;;;4860715;29;20176;-81
2021/09/21 04:08:51;;;;;;;4.28;2.80;;;18.40;53.90;;;;;;4876158;29;20168;-80
2021/09/21 04:11:19;;;;;;;4.32;2.85;;;18.30;53.90;;;;;;4876124;29;20235;-81
2021/09/21 04:13:45;;;;;;;3.42;2.80;;;18.30;54.30;;;;;;4876400;29;20195;-80
2021/09/21 04:16:11;;;;;;;4.32;2.90;;;18.30;53.50;;;;;;4876205;29;20164;-80
2021/09/21 04:18:38;;;;;;;3.40;2.75;;;18.40;54.10;;;;;;4860331;29;20208;-80
2021/09/21 04:21:04;;;;;;;4.55;2.97;;;18.40;53.60;;;;;;4860384;29;20164;-80
2021/09/21 04:23:31;;;;;;;3.78;2.97;;;18.40;54.20;;;;;;4891227;29;20204;-80
2021/09/21 04:25:58;;;;;;;5.40;3.40;;;18.40;54.00;;;;;;4890988;29;20196;-80
2021/09/21 04:28:23;;;;;;;4.32;2.92;;;18.30;54.40;;;;;;4860123;29;20176;-80
2021/09/21 04:30:51;;;;;;;3.88;2.80;;;18.30;53.70;;;;;;4860176;29;20200;-80
2021/09/21 04:33:16;;;;;;;3.42;2.80;;;18.40;54.20;;;;;;4860580;29;20196;-80
2021/09/21 04:35:42;;;;;;;3.25;2.85;;;18.40;53.80;;;;;;4892158;29;20213;-80
2021/09/21 04:38:11;;;;;;;3.60;2.55;;;18.30;54.50;;;;;;4875123;29;20252;-80
2021/09/21 04:40:38;;;;;;;3.08;2.75;;;18.30;53.90;;;;;;4891757;29;20168;-80
2021/09/21 04:43:04;;;;;;;2.90;2.50;;;18.30;54.00;;;;;;4860433;29;20176;-80
2021/09/21 04:45:32;;;;;;;4.03;3.00;;;18.30;53.60;;;;;;4891749;29;20175;-80
2021/09/21 04:47:59;;;;;;;3.17;2.78;;;18.30;54.20;;;;;;4859168;29;20176;-80
2021/09/21 04:50:27;;;;;;;3.45;2.70;;;18.30;54.10;;;;;;4875889;29;20164;-80
2021/09/21 04:52:56;;;;;;;3.65;2.72;;;18.30;53.60;;;;;;4860462;29;20212;-81
2021/09/21 04:55:21;;;;;;;5.75;3.00;;;18.30;54.10;;;;;;4891308;29;20184;-80
2021/09/21 04:57:47;;;;;;;4.38;2.92;;;18.30;54.60;;;;;;4875684;29;20149;-80
2021/09/21 05:00:14;;;;;;;3.72;2.80;;;18.30;53.90;;;;;;4890976;29;20188;-80
2021/09/21 05:02:40;;;;;;;3.50;2.67;;;18.30;53.80;;;;;;4875594;29;20160;-80
2021/09/21 05:05:06;;;;;;;3.45;2.75;;;18.30;53.90;;;;;;4875484;29;20171;-80
2021/09/21 05:07:32;;;;;;;4.07;2.90;;;18.30;54.20;;;;;;4859784;29;20179;-80
2021/09/21 05:09:57;;;;;;;4.28;2.90;;;18.40;53.70;;;;;;4860484;29;20657;-80
2021/09/21 05:12:23;;;;;;;3.83;2.75;;;18.40;54.00;;;;;;4890550;29;20164;-80
2021/09/21 05:14:49;;;;;;;3.88;2.90;;;18.30;53.70;;;;;;4876185;29;20160;-80
2021/09/21 05:17:14;;;;;;;4.15;2.70;;;18.30;54.50;;;;;;4875090;29;20164;-80
2021/09/21 05:19:42;;;;;;;3.45;2.65;;;18.30;53.80;;;;;;4863274;29;20178;-80
2021/09/21 05:22:09;;;;;;;4.03;2.80;;;18.30;53.90;;;;;;4894962;29;20189;-81
2021/09/21 05:24:34;;;;;;;3.63;3.03;;;18.30;54.10;;;;;;4863461;29;20175;-81
2021/09/21 05:27:02;;;;;;;4.15;3.00;;;18.30;54.10;;;;;;4894992;29;20232;-81
2021/09/21 05:29:29;;;;;;;3.47;2.70;;;18.30;53.60;;;;;;4863636;29;20715;-81
2021/09/21 05:31:55;;;;;;;3.40;2.75;;;18.30;53.60;;;;;;4894280;29;20203;-81
2021/09/21 05:34:25;;;;;;;3.78;2.90;;;18.30;54.70;;;;;;4879069;29;20204;-81
2021/09/21 05:36:51;;;;;;;4.18;2.97;;;18.30;54.00;;;;;;4895388;29;20164;-81
2021/09/21 05:39:17;;;;;;;3.33;2.60;;;18.20;54.40;;;;;;4893854;29;20254;-81
2021/09/21 05:41:48;;;;;;;3.58;2.78;;;18.30;54.10;;;;;;4879168;29;20152;-80
2021/09/21 05:44:16;;;;;;;3.28;2.78;;;18.30;54.00;;;;;;4894634;29;20495;-80
2021/09/21 05:46:42;;;;;;;4.28;2.90;;;18.30;53.90;;;;;;4893877;29;20200;-81
2021/09/21 05:49:08;;;;;;;3.17;2.60;;;18.30;54.20;;;;;;4862389;29;20178;-80
2021/09/21 05:51:37;;;;;;;3.80;2.95;;;18.30;53.90;;;;;;4862898;29;20203;-81
2021/09/21 05:54:02;;;;;;;4.05;2.97;;;18.30;54.20;;;;;;4862796;29;20214;-80
2021/09/21 05:56:33;;;;;;;3.17;2.65;;;18.40;54.20;;;;;;4893938;29;20172;-80
2021/09/21 05:59:01;;;;;;;3.63;2.83;;;18.30;54.10;;;;;;4894344;29;20167;-81
2021/09/21 06:01:29;;;;;;;3.67;2.83;;;18.20;54.10;;;;;;4878793;29;20160;-80
2021/09/21 06:03:59;;;;;;;4.03;2.80;;;18.30;54.30;;;;;;4894122;29;20192;-80
2021/09/21 06:06:25;;;;;;;3.58;2.70;;;18.30;54.50;;;;;;4894250;29;20628;-81
2021/09/21 06:08:50;;;;;;;4.75;2.72;;;18.30;54.40;;;;;;4893575;29;20203;-81
2021/09/21 06:11:20;;;;;;;5.25;3.08;;;18.30;53.90;;;;;;4878235;29;20541;-81
2021/09/21 06:13:47;;;;;;;3.90;2.78;;;18.30;53.90;;;;;;4878464;29;20204;-80
2021/09/21 06:16:16;;;;;;;3.85;2.95;;;18.30;54.00;;;;;;4877894;29;20255;-80
2021/09/21 06:18:42;;;;;;;3.92;2.80;;;18.40;54.00;;;;;;4893101;29;20160;-81
2021/09/21 06:21:09;;;;;;;3.53;2.75;;;18.40;54.20;;;;;;4893962;29;20164;-80
2021/09/21 06:23:36;;;;;;;5.28;2.80;;;18.40;54.20;;;;;;4877985;29;20180;-80
2021/09/21 06:26:04;;;;;;;3.65;2.90;;;18.40;54.40;;;;;;4862477;29;20172;-80
2021/09/21 06:28:30;;;;;;;3.72;2.63;;;18.30;54.10;;;;;;4877689;29;20184;-81
2021/09/21 06:30:56;;;;;;;4.55;3.17;;;18.40;54.30;;;;;;4877953;29;20173;-80
2021/09/21 06:33:21;;;;;;;3.28;2.83;;;18.40;54.20;;;;;;4862285;29;20196;-80
2021/09/21 06:35:47;;;;;;;4.40;2.65;;;18.40;54.10;;;;;;4892969;29;20187;-80
2021/09/21 06:38:13;;;;;;;3.85;3.10;;;18.40;54.50;;;;;;4893377;29;20231;-80
2021/09/21 06:40:39;;;;;;;4.60;2.90;;;18.30;54.30;;;;;;4892783;29;20180;-80
2021/09/21 06:43:08;;;;;;;3.63;2.58;;;18.30;54.50;;;;;;4894407;29;20167;-80
2021/09/21 06:45:35;;;;;;;4.55;2.90;;;18.30;54.20;;;;;;4894551;29;20172;-80
2021/09/21 06:48:00;;;;;;;4.32;2.90;;;18.40;54.40;;;;;;4862707;29;20176;-80
2021/09/21 06:50:27;;;;;;;4.22;3.03;;;18.40;54.40;;;;;;4878527;29;20199;-80
2021/09/21 06:52:53;;;;;;;3.88;2.78;;;18.40;54.30;;;;;;4877513;29;20204;-80
2021/09/21 06:55:18;;;;;;;3.53;2.78;;;18.30;54.40;;;;;;4861329;29;20184;-80
2021/09/21 06:57:49;;;;;;;4.70;2.85;;;18.40;54.20;;;;;;4877634;29;20172;-80
2021/09/21 07:00:15;;;;;;;2.95;2.42;;;18.40;54.40;;;;;;4877830;29;20172;-80
2021/09/21 07:02:47;;;;;;;3.03;2.35;;;18.40;54.50;;;;;;4894263;29;20185;-80
2021/09/21 07:05:13;;;;;;;3.67;2.80;;;18.40;54.50;;;;;;4835747;29;20190;-80
2021/09/21 07:07:43;;;;;;;3.90;2.72;;;18.40;54.10;;;;;;4821051;29;20197;-81
2021/09/21 07:10:10;;;;;;;4.53;3.13;;;18.40;54.20;;;;;;4806466;29;20193;-80
2021/09/21 07:12:43;;;;;;;4.00;2.78;;;18.30;54.20;;;;;;4805918;29;20206;-80
2021/09/21 07:15:10;;;;;;;4.63;2.97;;;18.40;54.40;;;;;;4835874;29;20183;-79
2021/09/21 07:17:36;;;;;;;3.88;2.63;;;18.40;54.10;;;;;;4836730;29;20169;-79
2021/09/21 07:20:04;;;;;;;3.35;2.67;;;18.40;54.20;;;;;;4806366;29;20185;-80
2021/09/21 07:22:34;;;;;;;3.22;2.55;;;18.40;54.20;;;;;;4821511;29;20163;-79
2021/09/21 07:25:01;;;;;;;3.45;2.80;;;18.40;54.10;;;;;;4804229;29;20216;-79
2021/09/21 07:27:29;;;;;;;4.43;3.03;;;18.40;54.30;;;;;;4804594;29;20170;-80
2021/09/21 07:29:56;;;;;;;3.70;2.92;;;18.40;54.20;;;;;;4819546;29;20196;-80
2021/09/21 07:32:22;;;;;;;2.95;2.33;;;18.40;54.40;;;;;;4821029;29;20170;-80
2021/09/21 07:34:47;;;;;;;3.65;2.80;;;18.30;54.20;;;;;;4835743;29;20190;-80
2021/09/21 07:37:16;;;;;;;3.88;2.60;;;18.40;54.30;;;;;;4858146;29;20195;-80
2021/09/21 07:39:49;;;;;;;3.67;3.10;;;18.40;54.30;;;;;;4860521;29;20235;-80
2021/09/21 07:42:17;;;;;;;3.30;2.63;;;18.40;54.10;;;;;;4876021;29;20286;-80
2021/09/21 07:44:45;;;;;;;3.25;2.70;;;18.40;54.20;;;;;;4861358;29;20180;-79
2021/09/21 07:47:11;;;;;;;3.72;2.90;;;18.40;54.30;;;;;;4876458;29;20188;-80
2021/09/21 07:49:37;;;;;;;4.07;2.80;;;18.40;54.00;;;;;;4860527;29;20180;-80
2021/09/21 07:52:09;;;;;;;3.65;2.92;;;18.40;53.90;;;;;;4860491;29;20208;-80
2021/09/21 07:54:35;;;;;;;3.92;2.75;;;18.40;54.00;;;;;;4891029;29;20199;-79
2021/09/21 07:57:03;;;;;;;3.17;2.63;;;18.40;54.00;;;;;;4859829;29;20184;-80
2021/09/21 07:59:29;;;;;;;3.20;2.60;;;18.40;54.00;;;;;;4891476;29;20184;-80
2021/09/21 08:01:55;;;;;;;3.42;2.70;;;18.40;54.40;;;;;;4876298;29;20180;-80
2021/09/21 08:04:21;;;;;;;4.10;2.97;;;18.50;53.90;;;;;;4892211;29;20539;-80
2021/09/21 08:06:47;;;;;;;3.75;2.60;;;18.40;54.00;;;;;;4893092;29;20164;-79
2021/09/21 08:09:18;;;;;;;4.05;2.85;;;18.50;53.90;;;;;;4892457;29;20179;-80
2021/09/21 08:11:43;;;;;;;3.20;2.80;;;18.50;54.10;;;;;;4892327;29;20164;-80
2021/09/21 08:14:11;;;;;;;3.80;2.80;;;18.40;54.10;;;;;;4891869;29;20248;-79
2021/09/21 08:16:39;;;;;;;3.05;2.60;;;18.50;54.10;;;;;;4892349;29;20160;-79
2021/09/21 08:19:08;;;;;;;3.20;2.80;;;18.40;53.90;;;;;;4892769;29;20655;-80
2021/09/21 08:21:36;;;;;;;4.47;3.10;;;18.50;54.00;;;;;;4891850;29;20156;-80
2021/09/21 08:24:05;;;;;;;5.00;2.78;;;18.50;53.80;;;;;;4892052;29;20185;-80
2021/09/21 08:26:31;;;;;;;4.65;3.13;;;18.50;53.80;;;;;;4891617;29;20175;-81
2021/09/21 08:28:57;;;;;;;3.58;2.50;;;18.50;53.90;;;;;;4875621;29;20543;-81
2021/09/21 08:31:23;;;;;;;4.45;2.70;;;18.50;54.00;;;;;;4874402;29;20672;-80
2021/09/21 08:33:48;;;;;;;4.80;2.78;;;18.50;53.80;;;;;;4873160;29;20252;-80
2021/09/21 08:36:19;;;;;;;4.07;3.13;;;18.50;53.70;;;;;;4890588;29;20161;-81
2021/09/21 08:38:47;;;;;;;4.32;2.55;;;18.50;53.60;;;;;;4874417;29;20231;-79
2021/09/21 08:41:13;;;;;;;3.42;2.70;;;18.50;53.70;;;;;;4874575;29;20184;-79
2021/09/21 08:43:39;;;;;;;3.67;2.50;;;18.60;53.80;;;;;;4890219;29;20161;-79
2021/09/21 08:46:06;;;;;;;3.45;2.70;;;18.50;53.90;;;;;;4875003;29;20179;-80
2021/09/21 08:48:38;;;;;;;3.92;2.40;;;18.50;53.60;;;;;;4874194;29;20180;-80
2021/09/21 08:51:04;;;;;;;3.80;2.60;;;18.50;53.70;;;;;;4874692;29;20176;-79
2021/09/21 08:53:30;;;;;;;3.28;2.55;;;18.50;53.90;;;;;;4874021;29;20670;-79
2021/09/21 08:55:57;;;;;;;3.08;2.72;;;18.50;54.00;;;;;;4874875;29;20203;-80
2021/09/21 08:58:25;;;;;;;3.72;2.47;;;18.50;54.10;;;;;;4875350;29;20184;-79
2021/09/21 09:00:51;;;;;;;4.30;2.60;;;18.50;54.10;;;;;;4891692;29;20184;-79
2021/09/21 09:03:18;;;;;;;3.78;2.90;;;18.50;53.90;;;;;;4892183;29;20619;-80
2021/09/21 09:05:47;;;;;;;4.22;2.67;;;18.60;53.50;;;;;;4891181;29;20181;-79
2021/09/21 09:08:35;;;;;;;4.40;2.55;;;18.60;54.30;;;;;;4891628;29;20241;-79
2021/09/21 09:11:21;;;;;;;3.70;2.47;;;18.50;53.70;;;;;;4874953;29;20244;-79
2021/09/21 09:13:52;;;;;;;6.25;2.50;;;18.50;53.60;;;;;;4891130;29;20211;-80
2021/09/21 09:16:24;;;;;;;3.55;2.67;;;18.60;54.00;;;;;;4859647;29;20172;-80
2021/09/21 09:19:08;;;;;;;8.57;3.03;;;18.60;53.70;;;;;;4875520;29;20168;-79
2021/09/21 09:21:37;;;;;;;4.35;2.85;;;18.60;54.50;;;;;;4875771;29;20159;-79
2021/09/21 09:24:07;;;;;;;4.38;2.60;;;18.50;53.50;;;;;;4892454;29;20169;-78
2021/09/21 09:26:34;;;;;;;7.75;2.90;;;18.60;53.90;;;;;;4874931;29;20164;-79
2021/09/21 09:29:00;;;;;;;7.22;2.97;;;18.60;53.70;;;;;;4892539;29;20233;-79
2021/09/21 09:31:28;;;;;;;8.50;2.88;;;18.60;53.20;;;;;;4892119;29;20175;-79
2021/09/21 09:34:11;;;;;;;6.88;2.58;;;18.60;53.80;;;;;;4890821;29;20192;-79
2021/09/21 09:36:51;;;;;;;5.90;2.60;;;18.60;53.70;;;;;;4891620;29;20172;-79
2021/09/21 09:39:20;;;;;;;5.10;2.80;;;18.60;53.30;;;;;;4890381;29;20590;-79
2021/09/21 09:41:50;;;;;;;6.28;2.65;;;18.60;53.50;;;;;;4875452;29;20243;-79
2021/09/21 09:44:23;;;;;;;4.38;2.65;;;18.70;53.50;;;;;;4874711;29;20184;-79
2021/09/21 09:47:03;;;;;;;5.93;2.45;;;18.60;53.30;;;;;;4875304;29;20180;-79
2021/09/21 09:49:46;;;;;;;;;;;;;;;;;;;;;
2021/09/21 09:52:32;;;;;;;6.82;2.75;;;18.70;53.80;;;;;;4835922;29;20767;-80
2021/09/21 09:55:05;;;;;;;4.32;2.65;;;18.70;53.70;;;;;;4825007;29;20193;-80
2021/09/21 09:57:44;;;;;;;6.28;2.42;;;18.60;53.60;;;;;;4838229;29;20181;-79
2021/09/21 10:00:17;;;;;;;6.00;2.65;;;18.60;53.40;;;;;;4823827;29;20271;-80
2021/09/21 10:02:49;;;;;;;3.40;2.65;;;18.60;53.50;;;;;;4837249;29;20271;-80
2021/09/21 10:05:32;;;;;;;6.70;2.60;;;18.70;53.10;;;;;;4819094;29;20277;-81
2021/09/21 10:08:17;;;;;;;4.65;2.60;;;18.70;53.40;;;;;;4788249;30;20241;-81
2021/09/21 10:10:43;;;;;;;5.35;2.53;;;18.70;53.00;;;;;;4773794;30;20191;-81
2021/09/21 10:13:12;;;;;;;6.03;3.00;;;18.70;53.10;;;;;;4786078;30;20306;-81
2021/09/21 10:15:40;;;;;;;5.30;2.63;;;18.70;53.00;;;;;;4785402;30;20274;-81
2021/09/21 10:18:17;;;;;;;6.25;2.45;;;18.70;53.40;;;;;;4785306;30;20192;-80
2021/09/21 10:20:45;;;;;;;6.88;2.70;;;18.80;53.60;;;;;;4769222;30;20217;-80
2021/09/21 10:23:11;;;;;;;7.20;2.60;;;18.70;53.40;;;;;;4788713;29;20191;-80
2021/09/21 10:25:38;;;;;;;15.65;3.03;;;18.70;53.40;;;;;;4785813;29;20198;-80
2021/09/21 10:28:16;;;;;;;7.47;2.88;;;18.70;53.50;;;;;;4800836;29;20198;-78
2021/09/21 10:30:58;;;;;;;6.30;2.60;;;18.70;53.80;;;;;;4799715;29;20190;-79
2021/09/21 10:33:25;;;;;;;4.20;2.60;;;18.70;53.40;;;;;;4845466;29;20731;-79
2021/09/21 10:35:52;;;;;;;5.30;2.63;;;18.70;53.70;;;;;;4852487;29;20188;-80
2021/09/21 10:38:19;;;;;;;6.82;2.83;;;18.70;53.70;;;;;;4893111;29;20220;-81
2021/09/21 10:40:48;;;;;;;6.95;3.13;;;18.70;53.80;;;;;;4889324;29;20188;-81
2021/09/21 10:43:30;;;;;;;5.30;2.60;;;18.70;53.70;;;;;;4892718;29;20540;-82
2021/09/21 10:46:10;;;;;;;7.38;2.40;;;18.60;53.70;;;;;;4890571;29;20176;-79
2021/09/21 10:48:38;;;;;;;4.78;2.85;;;18.70;53.90;;;;;;4887968;29;20499;-80
2021/09/21 10:51:05;;;;;;;8.10;2.75;;;18.70;53.90;;;;;;4882939;29;20631;-79
2021/09/21 10:53:31;;;;;;;6.80;2.80;;;18.70;53.80;;;;;;4883003;29;20603;-81
2021/09/21 10:56:02;;;;;;;4.47;2.53;;;18.70;53.70;;;;;;4884055;29;20168;-81
2021/09/21 10:58:28;;;;;;;3.17;2.35;;;18.70;53.90;;;;;;4867128;29;20163;-81
2021/09/21 11:00:54;;;;;;;7.88;2.58;;;18.70;53.60;;;;;;4883598;29;20164;-81
2021/09/21 11:03:20;;;;;;;5.60;2.40;;;18.70;53.90;;;;;;4867685;29;20231;-80
2021/09/21 11:05:45;;;;;;;4.32;2.50;;;18.70;53.80;;;;;;4884035;29;20725;-80
2021/09/21 11:08:13;;;;;;;6.07;2.50;;;18.70;53.70;;;;;;4884910;29;20191;-81
2021/09/21 11:10:43;;;;;;;6.30;2.90;;;18.70;53.80;;;;;;4870555;29;20504;-80
2021/09/21 11:13:11;;;;;;;7.95;2.60;;;18.70;54.10;;;;;;4886276;29;20188;-81
2021/09/21 11:15:38;;;;;;;4.22;2.38;;;18.70;54.00;;;;;;4868880;29;20236;-81
2021/09/21 11:18:14;;;;;;;4.25;2.40;;;18.70;53.60;;;;;;4886580;29;20248;-80
2021/09/21 11:20:47;;;;;;;7.13;2.70;;;18.70;54.10;;;;;;4885123;29;20152;-81
2021/09/21 11:23:13;;;;;;;5.90;2.30;;;18.70;53.70;;;;;;4885026;29;20347;-80
2021/09/21 11:25:38;;;;;;;4.70;2.90;;;18.70;54.00;;;;;;4883004;29;20164;-81
2021/09/21 11:28:06;;;;;;;4.80;2.72;;;18.70;54.00;;;;;;4884081;29;20164;-81
2021/09/21 11:30:31;;;;;;;9.50;2.75;;;18.70;54.10;;;;;;4882213;29;20164;-80
2021/09/21 11:32:57;;;;;;;7.50;2.70;;;18.70;54.00;;;;;;4881736;29;20217;-81
2021/09/21 11:35:23;;;;;;;6.25;2.70;;;18.70;53.90;;;;;;4866654;29;20160;-81
2021/09/21 11:37:51;;;;;;;6.78;3.00;;;18.70;53.90;;;;;;4884929;29;20220;-81
2021/09/21 11:40:28;;;;;;;4.03;2.70;;;18.80;54.10;;;;;;4882184;29;20168;-81
2021/09/21 11:42:55;;;;;;;6.90;3.08;;;18.80;54.10;;;;;;4883603;29;20180;-80
2021/09/21 11:45:21;;;;;;;4.22;2.63;;;18.70;54.10;;;;;;4865868;29;20608;-81
2021/09/21 11:47:47;;;;;;;6.35;2.50;;;18.80;54.20;;;;;;4881412;29;20164;-81
2021/09/21 11:50:16;;;;;;;6.47;2.88;;;18.80;53.70;;;;;;4881623;29;20224;-79
2021/09/21 11:52:45;;;;;;;3.53;2.50;;;18.70;53.90;;;;;;4866829;29;20639;-81
2021/09/21 11:55:12;;;;;;;7.78;2.70;;;18.80;54.00;;;;;;4882393;29;20164;-81
2021/09/21 11:57:38;;;;;;;3.88;2.50;;;18.80;54.10;;;;;;4866428;29;20208;-81
2021/09/21 12:00:05;;;;;;;5.43;2.42;;;18.70;54.10;;;;;;4882645;29;20659;-80
2021/09/21 12:02:34;;;;;;;10.27;2.78;;;18.70;54.20;;;;;;4865456;29;20648;-80
2021/09/21 12:05:00;;;;;;;4.78;2.42;;;18.70;54.10;;;;;;4881782;29;20191;-80
2021/09/21 12:07:25;;;;;;;5.10;2.70;;;18.80;54.00;;;;;;4864915;29;20243;-81
2021/09/21 12:09:52;;;;;;;5.72;2.53;;;18.70;53.90;;;;;;4882134;29;20696;-81
2021/09/21 12:12:22;;;;;;;3.55;2.40;;;18.80;53.70;;;;;;4881378;29;20178;-80
2021/09/21 12:14:57;;;;;;;3.95;2.70;;;18.80;53.90;;;;;;4866011;29;20192;-81
2021/09/21 12:17:24;;;;;;;5.95;2.78;;;18.80;53.80;;;;;;4880911;29;20211;-79
2021/09/21 12:19:58;;;;;;;5.32;2.60;;;18.70;53.60;;;;;;4881669;29;20241;-81
2021/09/21 12:22:24;;;;;;;4.38;2.55;;;18.80;53.40;;;;;;4883836;29;20163;-80
2021/09/21 12:24:50;;;;;;;5.43;2.53;;;18.80;53.80;;;;;;4882620;29;20160;-81
2021/09/21 12:27:16;;;;;;;5.25;2.53;;;18.80;53.40;;;;;;4882816;29;20184;-80
2021/09/21 12:29:42;;;;;;;4.10;2.90;;;18.80;53.90;;;;;;4882276;29;20552;-80
2021/09/21 12:32:08;;;;;;;5.95;2.50;;;18.70;53.70;;;;;;4881501;29;20204;-80
2021/09/21 12:34:35;;;;;;;6.30;2.70;;;18.70;54.00;;;;;;4880424;29;20244;-81
2021/09/21 12:37:01;;;;;;;3.25;2.40;;;18.70;54.30;;;;;;4881305;29;20284;-79
2021/09/21 12:39:30;;;;;;;3.65;2.28;;;18.70;53.60;;;;;;4864322;29;20198;-80
2021/09/21 12:41:57;;;;;;;3.05;2.50;;;18.70;53.90;;;;;;4864108;29;20592;-81
2021/09/21 12:44:23;;;;;;;4.45;2.50;;;18.70;53.60;;;;;;4864331;29;20176;-81
2021/09/21 12:46:51;;;;;;;5.93;2.50;;;18.80;53.60;;;;;;4848600;29;20521;-80
2021/09/21 12:49:17;;;;;;;4.10;2.42;;;18.80;53.50;;;;;;4848815;29;20229;-80
2021/09/21 12:51:46;;;;;;;3.55;2.78;;;18.90;53.10;;;;;;4849054;29;20624;-81
2021/09/21 12:54:13;;;;;;;3.35;2.40;;;18.80;53.30;;;;;;4850098;29;20211;-80
2021/09/21 12:56:41;;;;;;;4.13;2.45;;;18.90;53.10;;;;;;4849177;29;20164;-81
2021/09/21 12:59:11;;;;;;;5.60;2.63;;;18.90;53.60;;;;;;4849345;29;20184;-80
2021/09/21 13:01:38;;;;;;;3.55;2.25;;;18.80;53.50;;;;;;4850304;29;20161;-81
2021/09/21 13:04:03;;;;;;;5.07;2.55;;;18.70;53.90;;;;;;4865984;29;20248;-80
2021/09/21 13:06:30;;;;;;;6.30;2.45;;;18.70;53.90;;;;;;4864312;29;20193;-80